sensor_id;sensor_type;location;lat;lon;timestamp;P1;durP1;ratioP1;P2;durP2;ratioP2
6564;SDS011;3316;44.118;27.258;2023-03-12T00:01:58;4.50;;;2.40;;
6564;SDS011;3316;44.118;27.258;2023-03-12T00:04:24;5.57;;;2.50;;
6564;SDS011;3316;44.118;27.258;2023-03-12T00:06:50;6.23;;;2.67;;
6564;SDS011;3316;44.118;27.258;2023-03-12T00:09:16;4.70;;;2.43;;
6564;SDS011;3316;44.118;27.258;2023-03-12T00:11:41;7.50;;;2.40;;
6564;SDS011;3316;44.118;27.258;2023-03-12T00:14:07;3.27;;;2.17;;
6564;SDS011;3316;44.118;27.258;2023-03-12T00:16:32;7.60;;;2.40;;
6564;SDS011;3316;44.118;27.258;2023-03-12T00:18:58;11.30;;;2.43;;
6564;SDS011;3316;44.118;27.258;2023-03-12T00:21:23;5.43;;;2.60;;
6564;SDS011;3316;44.118;27.258;2023-03-12T00:23:49;8.13;;;3.63;;
6564;SDS011;3316;44.118;27.258;2023-03-12T00:26:16;5.87;;;2.60;;
6564;SDS011;3316;44.118;27.258;2023-03-12T00:28:43;9.13;;;2.50;;
6564;SDS011;3316;44.118;27.258;2023-03-12T00:31:22;7.00;;;2.50;;
6564;SDS011;3316;44.118;27.258;2023-03-12T00:33:51;9.03;;;2.90;;
6564;SDS011;3316;44.118;27.258;2023-03-12T00:36:18;8.40;;;2.80;;
6564;SDS011;3316;44.118;27.258;2023-03-12T00:38:47;8.47;;;2.30;;
6564;SDS011;3316;44.118;27.258;2023-03-12T00:41:13;7.13;;;2.63;;
6564;SDS011;3316;44.118;27.258;2023-03-12T00:43:38;7.67;;;2.70;;
6564;SDS011;3316;44.118;27.258;2023-03-12T00:46:04;5.63;;;2.60;;
6564;SDS011;3316;44.118;27.258;2023-03-12T00:48:29;9.87;;;3.00;;
6564;SDS011;3316;44.118;27.258;2023-03-12T00:50:55;6.40;;;3.03;;
6564;SDS011;3316;44.118;27.258;2023-03-12T00:53:20;6.87;;;2.80;;
6564;SDS011;3316;44.118;27.258;2023-03-12T00:55:46;6.10;;;2.40;;
6564;SDS011;3316;44.118;27.258;2023-03-12T00:58:11;2.77;;;2.40;;
6564;SDS011;3316;44.118;27.258;2023-03-12T01:00:37;6.97;;;2.50;;
6564;SDS011;3316;44.118;27.258;2023-03-12T01:03:02;4.03;;;2.70;;
6564;SDS011;3316;44.118;27.258;2023-03-12T01:05:28;6.73;;;2.80;;
6564;SDS011;3316;44.118;27.258;2023-03-12T01:07:53;4.17;;;2.77;;
6564;SDS011;3316;44.118;27.258;2023-03-12T01:10:19;4.83;;;2.70;;
6564;SDS011;3316;44.118;27.258;2023-03-12T01:12:45;3.87;;;2.57;;
6564;SDS011;3316;44.118;27.258;2023-03-12T01:15:13;5.83;;;3.03;;
6564;SDS011;3316;44.118;27.258;2023-03-12T01:17:40;7.33;;;3.37;;
6564;SDS011;3316;44.118;27.258;2023-03-12T01:20:06;8.30;;;3.20;;
6564;SDS011;3316;44.118;27.258;2023-03-12T01:22:32;4.53;;;2.90;;
6564;SDS011;3316;44.118;27.258;2023-03-12T01:24:58;7.37;;;3.53;;
6564;SDS011;3316;44.118;27.258;2023-03-12T01:27:23;5.00;;;3.23;;
6564;SDS011;3316;44.118;27.258;2023-03-12T01:29:49;11.27;;;3.40;;
6564;SDS011;3316;44.118;27.258;2023-03-12T01:32:14;4.77;;;3.00;;
6564;SDS011;3316;44.118;27.258;2023-03-12T01:34:41;6.17;;;2.70;;
6564;SDS011;3316;44.118;27.258;2023-03-12T01:37:06;5.73;;;3.70;;
6564;SDS011;3316;44.118;27.258;2023-03-12T01:39:32;6.93;;;3.90;;
6564;SDS011;3316;44.118;27.258;2023-03-12T01:41:57;8.03;;;3.80;;
6564;SDS011;3316;44.118;27.258;2023-03-12T01:44:23;11.50;;;4.27;;
6564;SDS011;3316;44.118;27.258;2023-03-12T01:46:48;17.10;;;4.70;;
6564;SDS011;3316;44.118;27.258;2023-03-12T01:51:55;8.90;;;4.33;;
6564;SDS011;3316;44.118;27.258;2023-03-12T01:54:23;7.13;;;4.77;;
6564;SDS011;3316;44.118;27.258;2023-03-12T01:56:53;12.63;;;4.90;;
6564;SDS011;3316;44.118;27.258;2023-03-12T01:59:22;8.33;;;4.93;;
6564;SDS011;3316;44.118;27.258;2023-03-12T02:01:52;12.07;;;5.37;;
6564;SDS011;3316;44.118;27.258;2023-03-12T02:04:18;11.73;;;5.23;;
6564;SDS011;3316;44.118;27.258;2023-03-12T02:07:28;7.00;;;4.60;;
6564;SDS011;3316;44.118;27.258;2023-03-12T02:09:40;10.27;;;5.30;;
6564;SDS011;3316;44.118;27.258;2023-03-12T02:12:08;8.17;;;5.33;;
6564;SDS011;3316;44.118;27.258;2023-03-12T02:14:34;8.67;;;5.47;;
6564;SDS011;3316;44.118;27.258;2023-03-12T02:17:00;14.70;;;5.30;;
6564;SDS011;3316;44.118;27.258;2023-03-12T02:19:30;12.80;;;5.77;;
6564;SDS011;3316;44.118;27.258;2023-03-12T02:21:58;7.73;;;5.43;;
6564;SDS011;3316;44.118;27.258;2023-03-12T02:27:02;10.70;;;5.50;;
6564;SDS011;3316;44.118;27.258;2023-03-12T02:29:29;7.40;;;5.50;;
6564;SDS011;3316;44.118;27.258;2023-03-12T02:31:57;9.90;;;5.80;;
6564;SDS011;3316;44.118;27.258;2023-03-12T02:34:24;9.37;;;5.93;;
6564;SDS011;3316;44.118;27.258;2023-03-12T02:36:50;7.67;;;4.30;;
6564;SDS011;3316;44.118;27.258;2023-03-12T02:39:15;10.57;;;6.03;;
6564;SDS011;3316;44.118;27.258;2023-03-12T02:41:48;15.77;;;6.70;;
6564;SDS011;3316;44.118;27.258;2023-03-12T02:44:19;13.70;;;7.00;;
6564;SDS011;3316;44.118;27.258;2023-03-12T02:46:47;8.43;;;6.53;;
6564;SDS011;3316;44.118;27.258;2023-03-12T02:49:15;9.10;;;6.53;;
6564;SDS011;3316;44.118;27.258;2023-03-12T02:51:43;8.93;;;6.43;;
6564;SDS011;3316;44.118;27.258;2023-03-12T02:54:10;7.00;;;5.70;;
6564;SDS011;3316;44.118;27.258;2023-03-12T02:56:38;11.37;;;6.00;;
6564;SDS011;3316;44.118;27.258;2023-03-12T02:59:04;7.70;;;5.87;;
6564;SDS011;3316;44.118;27.258;2023-03-12T03:01:31;8.73;;;5.53;;
6564;SDS011;3316;44.118;27.258;2023-03-12T03:03:58;10.33;;;6.07;;
6564;SDS011;3316;44.118;27.258;2023-03-12T03:06:24;9.27;;;6.03;;
6564;SDS011;3316;44.118;27.258;2023-03-12T03:08:50;10.77;;;6.67;;
6564;SDS011;3316;44.118;27.258;2023-03-12T03:11:15;10.17;;;5.87;;
6564;SDS011;3316;44.118;27.258;2023-03-12T03:13:41;10.63;;;5.93;;
6564;SDS011;3316;44.118;27.258;2023-03-12T03:16:06;13.80;;;5.53;;
6564;SDS011;3316;44.118;27.258;2023-03-12T03:18:32;10.93;;;6.83;;
6564;SDS011;3316;44.118;27.258;2023-03-12T03:20:59;10.23;;;6.30;;
6564;SDS011;3316;44.118;27.258;2023-03-12T03:23:26;18.13;;;5.50;;
6564;SDS011;3316;44.118;27.258;2023-03-12T03:25:52;13.33;;;6.60;;
6564;SDS011;3316;44.118;27.258;2023-03-12T03:28:19;13.17;;;6.93;;
6564;SDS011;3316;44.118;27.258;2023-03-12T03:30:46;10.17;;;6.20;;
6564;SDS011;3316;44.118;27.258;2023-03-12T03:33:12;8.07;;;5.33;;
6564;SDS011;3316;44.118;27.258;2023-03-12T03:35:37;12.07;;;6.80;;
6564;SDS011;3316;44.118;27.258;2023-03-12T03:38:03;10.17;;;6.10;;
6564;SDS011;3316;44.118;27.258;2023-03-12T03:40:28;9.33;;;5.27;;
6564;SDS011;3316;44.118;27.258;2023-03-12T03:42:54;13.10;;;6.40;;
6564;SDS011;3316;44.118;27.258;2023-03-12T03:45:19;9.17;;;5.43;;
6564;SDS011;3316;44.118;27.258;2023-03-12T03:47:45;10.00;;;5.87;;
6564;SDS011;3316;44.118;27.258;2023-03-12T03:50:10;7.90;;;5.83;;
6564;SDS011;3316;44.118;27.258;2023-03-12T03:52:36;9.77;;;5.73;;
6564;SDS011;3316;44.118;27.258;2023-03-12T03:55:02;13.10;;;6.20;;
6564;SDS011;3316;44.118;27.258;2023-03-12T03:57:28;10.33;;;6.00;;
6564;SDS011;3316;44.118;27.258;2023-03-12T03:59:53;13.47;;;6.57;;
6564;SDS011;3316;44.118;27.258;2023-03-12T04:02:19;8.83;;;5.90;;
6564;SDS011;3316;44.118;27.258;2023-03-12T04:04:45;8.13;;;5.83;;
6564;SDS011;3316;44.118;27.258;2023-03-12T04:07:10;13.53;;;6.27;;
6564;SDS011;3316;44.118;27.258;2023-03-12T04:09:36;9.90;;;5.93;;
6564;SDS011;3316;44.118;27.258;2023-03-12T04:12:01;10.90;;;6.27;;
6564;SDS011;3316;44.118;27.258;2023-03-12T04:14:27;15.50;;;6.60;;
6564;SDS011;3316;44.118;27.258;2023-03-12T04:16:53;11.37;;;6.47;;
6564;SDS011;3316;44.118;27.258;2023-03-12T04:19:18;11.30;;;5.73;;
6564;SDS011;3316;44.118;27.258;2023-03-12T04:21:44;13.40;;;6.17;;
6564;SDS011;3316;44.118;27.258;2023-03-12T04:24:12;11.23;;;5.73;;
6564;SDS011;3316;44.118;27.258;2023-03-12T04:26:38;13.40;;;6.00;;
6564;SDS011;3316;44.118;27.258;2023-03-12T04:29:04;9.20;;;6.87;;
6564;SDS011;3316;44.118;27.258;2023-03-12T04:31:29;10.43;;;6.43;;
6564;SDS011;3316;44.118;27.258;2023-03-12T04:33:55;15.27;;;6.47;;
6564;SDS011;3316;44.118;27.258;2023-03-12T04:36:20;15.43;;;6.60;;
6564;SDS011;3316;44.118;27.258;2023-03-12T04:38:45;12.87;;;6.27;;
6564;SDS011;3316;44.118;27.258;2023-03-12T04:41:12;16.37;;;5.97;;
6564;SDS011;3316;44.118;27.258;2023-03-12T04:43:39;11.30;;;6.90;;
6564;SDS011;3316;44.118;27.258;2023-03-12T04:46:04;11.70;;;6.23;;
6564;SDS011;3316;44.118;27.258;2023-03-12T04:48:30;21.00;;;7.07;;
6564;SDS011;3316;44.118;27.258;2023-03-12T04:50:56;11.67;;;6.80;;
6564;SDS011;3316;44.118;27.258;2023-03-12T04:53:22;19.80;;;6.73;;
6564;SDS011;3316;44.118;27.258;2023-03-12T04:55:48;10.00;;;4.90;;
6564;SDS011;3316;44.118;27.258;2023-03-12T04:58:14;11.13;;;6.43;;
6564;SDS011;3316;44.118;27.258;2023-03-12T05:00:41;13.63;;;6.30;;
6564;SDS011;3316;44.118;27.258;2023-03-12T05:03:07;14.50;;;6.07;;
6564;SDS011;3316;44.118;27.258;2023-03-12T05:05:33;5.80;;;4.67;;
6564;SDS011;3316;44.118;27.258;2023-03-12T05:07:59;12.33;;;5.20;;
6564;SDS011;3316;44.118;27.258;2023-03-12T05:10:25;12.30;;;5.03;;
6564;SDS011;3316;44.118;27.258;2023-03-12T05:12:51;14.70;;;5.00;;
6564;SDS011;3316;44.118;27.258;2023-03-12T05:15:16;11.33;;;5.80;;
6564;SDS011;3316;44.118;27.258;2023-03-12T05:17:42;10.53;;;5.80;;
6564;SDS011;3316;44.118;27.258;2023-03-12T05:20:08;8.20;;;4.83;;
6564;SDS011;3316;44.118;27.258;2023-03-12T05:22:34;13.03;;;5.73;;
6564;SDS011;3316;44.118;27.258;2023-03-12T05:25:00;12.03;;;6.83;;
6564;SDS011;3316;44.118;27.258;2023-03-12T05:27:26;13.40;;;5.90;;
6564;SDS011;3316;44.118;27.258;2023-03-12T05:29:51;11.17;;;5.90;;
6564;SDS011;3316;44.118;27.258;2023-03-12T05:32:17;8.13;;;5.70;;
6564;SDS011;3316;44.118;27.258;2023-03-12T05:34:43;14.70;;;5.33;;
6564;SDS011;3316;44.118;27.258;2023-03-12T05:37:08;10.73;;;5.70;;
6564;SDS011;3316;44.118;27.258;2023-03-12T05:39:34;17.57;;;5.70;;
6564;SDS011;3316;44.118;27.258;2023-03-12T05:41:59;10.80;;;5.77;;
6564;SDS011;3316;44.118;27.258;2023-03-12T05:44:25;10.90;;;6.63;;
6564;SDS011;3316;44.118;27.258;2023-03-12T05:46:52;15.27;;;5.97;;
6564;SDS011;3316;44.118;27.258;2023-03-12T05:49:18;10.23;;;5.87;;
6564;SDS011;3316;44.118;27.258;2023-03-12T05:51:45;10.57;;;5.13;;
6564;SDS011;3316;44.118;27.258;2023-03-12T05:54:12;8.80;;;4.93;;
6564;SDS011;3316;44.118;27.258;2023-03-12T05:56:38;8.43;;;5.87;;
6564;SDS011;3316;44.118;27.258;2023-03-12T05:59:03;12.63;;;6.17;;
6564;SDS011;3316;44.118;27.258;2023-03-12T06:01:30;24.37;;;9.70;;
6564;SDS011;3316;44.118;27.258;2023-03-12T06:03:55;15.90;;;6.57;;
6564;SDS011;3316;44.118;27.258;2023-03-12T06:06:21;8.93;;;5.40;;
6564;SDS011;3316;44.118;27.258;2023-03-12T06:08:47;5.77;;;4.33;;
6564;SDS011;3316;44.118;27.258;2023-03-12T06:11:13;6.03;;;4.30;;
6564;SDS011;3316;44.118;27.258;2023-03-12T06:13:39;5.93;;;4.50;;
6564;SDS011;3316;44.118;27.258;2023-03-12T06:16:08;6.70;;;5.00;;
6564;SDS011;3316;44.118;27.258;2023-03-12T06:18:39;11.70;;;5.83;;
6564;SDS011;3316;44.118;27.258;2023-03-12T06:23:38;11.27;;;6.40;;
6564;SDS011;3316;44.118;27.258;2023-03-12T06:26:04;13.43;;;6.50;;
6564;SDS011;3316;44.118;27.258;2023-03-12T06:28:30;7.90;;;4.93;;
6564;SDS011;3316;44.118;27.258;2023-03-12T06:30:56;6.93;;;4.70;;
6564;SDS011;3316;44.118;27.258;2023-03-12T06:33:21;10.03;;;5.57;;
6564;SDS011;3316;44.118;27.258;2023-03-12T06:35:47;10.70;;;5.47;;
6564;SDS011;3316;44.118;27.258;2023-03-12T06:38:12;10.70;;;5.80;;
6564;SDS011;3316;44.118;27.258;2023-03-12T06:40:38;13.13;;;6.90;;
6564;SDS011;3316;44.118;27.258;2023-03-12T06:43:04;11.97;;;6.63;;
6564;SDS011;3316;44.118;27.258;2023-03-12T06:45:31;9.07;;;5.23;;
6564;SDS011;3316;44.118;27.258;2023-03-12T06:47:56;11.43;;;5.50;;
6564;SDS011;3316;44.118;27.258;2023-03-12T06:50:22;8.20;;;5.23;;
6564;SDS011;3316;44.118;27.258;2023-03-12T06:52:47;8.43;;;5.50;;
6564;SDS011;3316;44.118;27.258;2023-03-12T06:55:12;11.67;;;4.87;;
6564;SDS011;3316;44.118;27.258;2023-03-12T06:57:41;7.60;;;4.23;;
6564;SDS011;3316;44.118;27.258;2023-03-12T07:00:06;7.27;;;4.73;;
6564;SDS011;3316;44.118;27.258;2023-03-12T07:02:32;7.87;;;5.00;;
6564;SDS011;3316;44.118;27.258;2023-03-12T07:04:57;10.20;;;4.97;;
6564;SDS011;3316;44.118;27.258;2023-03-12T07:07:23;16.07;;;8.93;;
6564;SDS011;3316;44.118;27.258;2023-03-12T07:09:48;16.20;;;8.17;;
6564;SDS011;3316;44.118;27.258;2023-03-12T07:12:14;9.83;;;5.23;;
6564;SDS011;3316;44.118;27.258;2023-03-12T07:14:39;12.00;;;8.00;;
6564;SDS011;3316;44.118;27.258;2023-03-12T07:17:05;7.03;;;5.07;;
6564;SDS011;3316;44.118;27.258;2023-03-12T07:19:30;9.73;;;4.20;;
6564;SDS011;3316;44.118;27.258;2023-03-12T07:21:56;10.57;;;4.77;;
6564;SDS011;3316;44.118;27.258;2023-03-12T07:24:21;7.80;;;4.20;;
6564;SDS011;3316;44.118;27.258;2023-03-12T07:26:47;6.67;;;4.10;;
6564;SDS011;3316;44.118;27.258;2023-03-12T07:29:12;9.23;;;4.20;;
6564;SDS011;3316;44.118;27.258;2023-03-12T07:31:38;5.60;;;4.20;;
6564;SDS011;3316;44.118;27.258;2023-03-12T07:34:03;6.57;;;4.10;;
6564;SDS011;3316;44.118;27.258;2023-03-12T07:36:30;10.57;;;4.20;;
6564;SDS011;3316;44.118;27.258;2023-03-12T07:38:56;6.27;;;3.27;;
6564;SDS011;3316;44.118;27.258;2023-03-12T07:41:21;11.63;;;4.03;;
6564;SDS011;3316;44.118;27.258;2023-03-12T07:43:47;8.37;;;4.83;;
6564;SDS011;3316;44.118;27.258;2023-03-12T07:46:12;11.17;;;4.60;;
6564;SDS011;3316;44.118;27.258;2023-03-12T07:48:38;6.53;;;3.67;;
6564;SDS011;3316;44.118;27.258;2023-03-12T07:51:04;8.43;;;4.60;;
6564;SDS011;3316;44.118;27.258;2023-03-12T07:53:30;4.60;;;3.90;;
6564;SDS011;3316;44.118;27.258;2023-03-12T07:55:55;8.87;;;4.50;;
6564;SDS011;3316;44.118;27.258;2023-03-12T07:58:21;8.17;;;4.50;;
6564;SDS011;3316;44.118;27.258;2023-03-12T08:00:46;9.97;;;5.27;;
6564;SDS011;3316;44.118;27.258;2023-03-12T08:03:12;10.17;;;5.30;;
6564;SDS011;3316;44.118;27.258;2023-03-12T08:05:37;7.27;;;4.00;;
6564;SDS011;3316;44.118;27.258;2023-03-12T08:08:03;6.97;;;4.10;;
6564;SDS011;3316;44.118;27.258;2023-03-12T08:10:28;10.37;;;5.43;;
6564;SDS011;3316;44.118;27.258;2023-03-12T08:12:54;9.83;;;4.50;;
6564;SDS011;3316;44.118;27.258;2023-03-12T08:15:19;15.20;;;4.93;;
6564;SDS011;3316;44.118;27.258;2023-03-12T08:17:45;6.43;;;4.30;;
6564;SDS011;3316;44.118;27.258;2023-03-12T08:20:12;9.03;;;4.70;;
6564;SDS011;3316;44.118;27.258;2023-03-12T08:22:38;8.07;;;4.67;;
6564;SDS011;3316;44.118;27.258;2023-03-12T08:25:05;6.37;;;4.43;;
6564;SDS011;3316;44.118;27.258;2023-03-12T08:27:31;9.70;;;4.40;;
6564;SDS011;3316;44.118;27.258;2023-03-12T08:29:58;9.53;;;4.80;;
6564;SDS011;3316;44.118;27.258;2023-03-12T08:32:23;8.30;;;4.80;;
6564;SDS011;3316;44.118;27.258;2023-03-12T08:34:49;10.07;;;4.77;;
6564;SDS011;3316;44.118;27.258;2023-03-12T08:37:14;10.17;;;4.23;;
6564;SDS011;3316;44.118;27.258;2023-03-12T08:39:40;6.87;;;4.33;;
6564;SDS011;3316;44.118;27.258;2023-03-12T08:42:05;6.67;;;4.20;;
6564;SDS011;3316;44.118;27.258;2023-03-12T08:44:31;7.63;;;4.40;;
6564;SDS011;3316;44.118;27.258;2023-03-12T08:46:57;8.17;;;4.87;;
6564;SDS011;3316;44.118;27.258;2023-03-12T08:49:23;9.70;;;4.43;;
6564;SDS011;3316;44.118;27.258;2023-03-12T08:51:49;8.60;;;4.73;;
6564;SDS011;3316;44.118;27.258;2023-03-12T08:54:16;9.87;;;4.80;;
6564;SDS011;3316;44.118;27.258;2023-03-12T08:56:42;8.43;;;4.53;;
6564;SDS011;3316;44.118;27.258;2023-03-12T08:59:11;11.77;;;4.60;;
6564;SDS011;3316;44.118;27.258;2023-03-12T09:01:38;5.63;;;4.37;;
6564;SDS011;3316;44.118;27.258;2023-03-12T09:04:05;8.17;;;4.23;;
6564;SDS011;3316;44.118;27.258;2023-03-12T09:06:31;9.53;;;5.03;;
6564;SDS011;3316;44.118;27.258;2023-03-12T09:08:58;7.37;;;5.10;;
6564;SDS011;3316;44.118;27.258;2023-03-12T09:11:30;14.43;;;6.23;;
6564;SDS011;3316;44.118;27.258;2023-03-12T09:13:57;8.43;;;4.93;;
6564;SDS011;3316;44.118;27.258;2023-03-12T09:16:23;14.80;;;6.33;;
6564;SDS011;3316;44.118;27.258;2023-03-12T09:18:49;10.27;;;4.93;;
6564;SDS011;3316;44.118;27.258;2023-03-12T09:21:15;7.57;;;6.00;;
6564;SDS011;3316;44.118;27.258;2023-03-12T09:23:40;15.17;;;7.67;;
6564;SDS011;3316;44.118;27.258;2023-03-12T09:26:09;9.67;;;5.53;;
6564;SDS011;3316;44.118;27.258;2023-03-12T09:28:35;10.23;;;4.53;;
6564;SDS011;3316;44.118;27.258;2023-03-12T09:31:01;15.03;;;6.30;;
6564;SDS011;3316;44.118;27.258;2023-03-12T09:33:28;9.97;;;6.20;;
6564;SDS011;3316;44.118;27.258;2023-03-12T09:35:57;7.10;;;4.63;;
6564;SDS011;3316;44.118;27.258;2023-03-12T09:38:23;11.43;;;6.10;;
6564;SDS011;3316;44.118;27.258;2023-03-12T09:40:49;8.33;;;4.63;;
6564;SDS011;3316;44.118;27.258;2023-03-12T09:43:25;9.80;;;6.10;;
6564;SDS011;3316;44.118;27.258;2023-03-12T09:45:56;8.07;;;5.63;;
6564;SDS011;3316;44.118;27.258;2023-03-12T09:51:02;8.23;;;5.73;;
6564;SDS011;3316;44.118;27.258;2023-03-12T09:53:40;8.07;;;5.20;;
6564;SDS011;3316;44.118;27.258;2023-03-12T09:56:13;9.97;;;5.60;;
6564;SDS011;3316;44.118;27.258;2023-03-12T09:58:42;9.00;;;6.13;;
6564;SDS011;3316;44.118;27.258;2023-03-12T10:01:17;9.07;;;5.57;;
6564;SDS011;3316;44.118;27.258;2023-03-12T10:18:37;11.33;;;6.47;;
6564;SDS011;3316;44.118;27.258;2023-03-12T10:27:05;9.13;;;5.70;;
6564;SDS011;3316;44.118;27.258;2023-03-12T10:29:37;8.33;;;4.77;;
6564;SDS011;3316;44.118;27.258;2023-03-12T10:32:06;7.07;;;5.10;;
6564;SDS011;3316;44.118;27.258;2023-03-12T10:37:12;15.10;;;5.30;;
6564;SDS011;3316;44.118;27.258;2023-03-12T10:39:48;8.10;;;5.03;;
6564;SDS011;3316;44.118;27.258;2023-03-12T10:42:15;7.33;;;4.80;;
6564;SDS011;3316;44.118;27.258;2023-03-12T10:44:44;10.80;;;5.80;;
6564;SDS011;3316;44.118;27.258;2023-03-12T10:49:43;7.23;;;4.70;;
6564;SDS011;3316;44.118;27.258;2023-03-12T10:52:15;9.20;;;5.17;;
6564;SDS011;3316;44.118;27.258;2023-03-12T10:54:46;7.87;;;5.33;;
6564;SDS011;3316;44.118;27.258;2023-03-12T10:57:15;8.77;;;5.37;;
6564;SDS011;3316;44.118;27.258;2023-03-12T10:59:42;7.83;;;4.87;;
6564;SDS011;3316;44.118;27.258;2023-03-12T11:04:56;6.87;;;5.60;;
6564;SDS011;3316;44.118;27.258;2023-03-12T11:07:24;6.97;;;5.07;;
6564;SDS011;3316;44.118;27.258;2023-03-12T11:10:10;9.17;;;5.20;;
6564;SDS011;3316;44.118;27.258;2023-03-12T11:15:47;8.50;;;6.70;;
6564;SDS011;3316;44.118;27.258;2023-03-12T11:18:17;9.83;;;5.20;;
6564;SDS011;3316;44.118;27.258;2023-03-12T11:20:53;9.73;;;5.17;;
6564;SDS011;3316;44.118;27.258;2023-03-12T11:23:40;8.40;;;5.57;;
6564;SDS011;3316;44.118;27.258;2023-03-12T11:28:48;8.67;;;5.77;;
6564;SDS011;3316;44.118;27.258;2023-03-12T11:31:21;10.53;;;5.33;;
6564;SDS011;3316;44.118;27.258;2023-03-12T11:33:50;11.17;;;5.77;;
6564;SDS011;3316;44.118;27.258;2023-03-12T11:39:12;9.87;;;6.43;;
6564;SDS011;3316;44.118;27.258;2023-03-12T11:45:13;7.83;;;5.17;;
6564;SDS011;3316;44.118;27.258;2023-03-12T11:50:27;10.07;;;5.93;;
6564;SDS011;3316;44.118;27.258;2023-03-12T11:53:02;8.40;;;5.77;;
6564;SDS011;3316;44.118;27.258;2023-03-12T12:01:08;6.97;;;4.60;;
6564;SDS011;3316;44.118;27.258;2023-03-12T12:06:15;7.03;;;5.20;;
6564;SDS011;3316;44.118;27.258;2023-03-12T12:14:54;9.50;;;6.00;;
6564;SDS011;3316;44.118;27.258;2023-03-12T12:17:25;10.33;;;6.03;;
6564;SDS011;3316;44.118;27.258;2023-03-12T12:22:56;8.33;;;4.80;;
6564;SDS011;3316;44.118;27.258;2023-03-12T12:36:07;9.00;;;5.37;;
6564;SDS011;3316;44.118;27.258;2023-03-12T12:38:35;7.90;;;5.47;;
6564;SDS011;3316;44.118;27.258;2023-03-12T12:41:10;6.23;;;5.23;;
6564;SDS011;3316;44.118;27.258;2023-03-12T12:43:48;7.30;;;5.10;;
6564;SDS011;3316;44.118;27.258;2023-03-12T12:46:21;5.77;;;4.83;;
6564;SDS011;3316;44.118;27.258;2023-03-12T12:51:43;8.33;;;5.87;;
6564;SDS011;3316;44.118;27.258;2023-03-12T12:57:13;6.93;;;5.27;;
6564;SDS011;3316;44.118;27.258;2023-03-12T13:02:51;9.60;;;5.10;;
6564;SDS011;3316;44.118;27.258;2023-03-12T13:07:59;20.50;;;11.43;;
6564;SDS011;3316;44.118;27.258;2023-03-12T13:12:56;8.53;;;5.13;;
6564;SDS011;3316;44.118;27.258;2023-03-12T13:20:46;4.67;;;4.20;;
6564;SDS011;3316;44.118;27.258;2023-03-12T13:23:54;7.43;;;4.33;;
6564;SDS011;3316;44.118;27.258;2023-03-12T13:26:30;4.13;;;3.30;;
6564;SDS011;3316;44.118;27.258;2023-03-12T13:31:53;7.00;;;4.77;;
6564;SDS011;3316;44.118;27.258;2023-03-12T13:36:45;4.50;;;4.10;;
6564;SDS011;3316;44.118;27.258;2023-03-12T13:41:41;6.90;;;3.53;;
6564;SDS011;3316;44.118;27.258;2023-03-12T13:49:28;6.57;;;3.60;;
6564;SDS011;3316;44.118;27.258;2023-03-12T13:55:44;3.90;;;3.13;;
6564;SDS011;3316;44.118;27.258;2023-03-12T13:57:40;5.53;;;4.03;;
6564;SDS011;3316;44.118;27.258;2023-03-12T14:00:35;6.27;;;3.63;;
6564;SDS011;3316;44.118;27.258;2023-03-12T14:11:22;4.57;;;3.80;;
6564;SDS011;3316;44.118;27.258;2023-03-12T14:16:51;6.67;;;3.80;;
6564;SDS011;3316;44.118;27.258;2023-03-12T14:19:23;4.20;;;3.50;;
6564;SDS011;3316;44.118;27.258;2023-03-12T14:21:51;5.00;;;3.57;;
6564;SDS011;3316;44.118;27.258;2023-03-12T14:24:23;4.90;;;3.30;;
6564;SDS011;3316;44.118;27.258;2023-03-12T14:26:55;5.40;;;3.67;;
6564;SDS011;3316;44.118;27.258;2023-03-12T14:29:27;4.63;;;3.67;;
6564;SDS011;3316;44.118;27.258;2023-03-12T14:32:01;6.70;;;3.83;;
6564;SDS011;3316;44.118;27.258;2023-03-12T14:34:30;4.50;;;2.70;;
6564;SDS011;3316;44.118;27.258;2023-03-12T14:37:04;4.27;;;3.07;;
6564;SDS011;3316;44.118;27.258;2023-03-12T14:39:55;3.60;;;2.83;;
6564;SDS011;3316;44.118;27.258;2023-03-12T14:42:31;4.10;;;2.83;;
6564;SDS011;3316;44.118;27.258;2023-03-12T14:45:00;2.93;;;2.50;;
6564;SDS011;3316;44.118;27.258;2023-03-12T14:47:43;4.23;;;2.17;;
6564;SDS011;3316;44.118;27.258;2023-03-12T14:50:16;2.90;;;2.53;;
6564;SDS011;3316;44.118;27.258;2023-03-12T14:52:44;3.10;;;2.43;;
6564;SDS011;3316;44.118;27.258;2023-03-12T14:55:11;2.77;;;2.37;;
6564;SDS011;3316;44.118;27.258;2023-03-12T14:57:42;2.53;;;2.33;;
6564;SDS011;3316;44.118;27.258;2023-03-12T15:00:25;4.13;;;2.80;;
6564;SDS011;3316;44.118;27.258;2023-03-12T15:02:52;3.10;;;2.40;;
6564;SDS011;3316;44.118;27.258;2023-03-12T15:05:20;4.83;;;3.80;;
6564;SDS011;3316;44.118;27.258;2023-03-12T15:07:46;3.10;;;2.80;;
6564;SDS011;3316;44.118;27.258;2023-03-12T15:10:19;4.67;;;3.10;;
6564;SDS011;3316;44.118;27.258;2023-03-12T15:12:45;4.33;;;2.50;;
6564;SDS011;3316;44.118;27.258;2023-03-12T15:18:02;2.57;;;2.37;;
6564;SDS011;3316;44.118;27.258;2023-03-12T15:20:31;6.03;;;4.17;;
6564;SDS011;3316;44.118;27.258;2023-03-12T15:22:56;5.50;;;3.20;;
6564;SDS011;3316;44.118;27.258;2023-03-12T15:25:25;3.33;;;2.50;;
6564;SDS011;3316;44.118;27.258;2023-03-12T15:30:29;4.87;;;2.70;;
6564;SDS011;3316;44.118;27.258;2023-03-12T15:33:02;7.27;;;4.90;;
6564;SDS011;3316;44.118;27.258;2023-03-12T15:35:37;6.47;;;4.30;;
6564;SDS011;3316;44.118;27.258;2023-03-12T15:38:12;5.43;;;3.23;;
6564;SDS011;3316;44.118;27.258;2023-03-12T15:40:39;5.73;;;3.63;;
6564;SDS011;3316;44.118;27.258;2023-03-12T15:43:04;6.57;;;4.57;;
6564;SDS011;3316;44.118;27.258;2023-03-12T15:45:38;4.90;;;4.37;;
6564;SDS011;3316;44.118;27.258;2023-03-12T15:48:14;5.53;;;4.17;;
6564;SDS011;3316;44.118;27.258;2023-03-12T15:50:46;3.37;;;2.77;;
6564;SDS011;3316;44.118;27.258;2023-03-12T15:55:40;5.53;;;3.50;;
6564;SDS011;3316;44.118;27.258;2023-03-12T15:58:25;6.67;;;4.23;;
6564;SDS011;3316;44.118;27.258;2023-03-12T16:01:04;8.87;;;5.13;;
6564;SDS011;3316;44.118;27.258;2023-03-12T16:03:32;8.20;;;6.00;;
6564;SDS011;3316;44.118;27.258;2023-03-12T16:05:57;12.47;;;6.00;;
6564;SDS011;3316;44.118;27.258;2023-03-12T16:08:33;11.50;;;6.33;;
6564;SDS011;3316;44.118;27.258;2023-03-12T16:11:02;21.63;;;11.33;;
6564;SDS011;3316;44.118;27.258;2023-03-12T16:13:29;23.00;;;13.47;;
6564;SDS011;3316;44.118;27.258;2023-03-12T16:15:55;25.67;;;14.87;;
6564;SDS011;3316;44.118;27.258;2023-03-12T16:18:22;27.33;;;15.73;;
6564;SDS011;3316;44.118;27.258;2023-03-12T16:20:48;38.80;;;24.53;;
6564;SDS011;3316;44.118;27.258;2023-03-12T16:23:15;29.73;;;18.10;;
6564;SDS011;3316;44.118;27.258;2023-03-12T16:25:41;25.73;;;14.70;;
6564;SDS011;3316;44.118;27.258;2023-03-12T16:28:10;19.07;;;12.70;;
6564;SDS011;3316;44.118;27.258;2023-03-12T16:30:38;21.57;;;13.30;;
6564;SDS011;3316;44.118;27.258;2023-03-12T16:33:04;27.30;;;15.17;;
6564;SDS011;3316;44.118;27.258;2023-03-12T16:35:30;31.63;;;20.40;;
6564;SDS011;3316;44.118;27.258;2023-03-12T16:37:59;23.83;;;13.43;;
6564;SDS011;3316;44.118;27.258;2023-03-12T16:40:26;16.10;;;9.43;;
6564;SDS011;3316;44.118;27.258;2023-03-12T16:42:54;18.57;;;11.53;;
6564;SDS011;3316;44.118;27.258;2023-03-12T16:45:19;38.77;;;21.23;;
6564;SDS011;3316;44.118;27.258;2023-03-12T16:47:46;45.17;;;26.13;;
6564;SDS011;3316;44.118;27.258;2023-03-12T16:50:18;57.80;;;34.60;;
6564;SDS011;3316;44.118;27.258;2023-03-12T16:52:46;108.70;;;54.80;;
6564;SDS011;3316;44.118;27.258;2023-03-12T16:55:15;99.00;;;57.17;;
6564;SDS011;3316;44.118;27.258;2023-03-12T16:57:43;103.93;;;51.03;;
6564;SDS011;3316;44.118;27.258;2023-03-12T17:00:15;89.53;;;41.50;;
6564;SDS011;3316;44.118;27.258;2023-03-12T17:02:47;96.03;;;47.43;;
6564;SDS011;3316;44.118;27.258;2023-03-12T17:05:14;108.23;;;52.10;;
6564;SDS011;3316;44.118;27.258;2023-03-12T17:07:40;88.97;;;46.53;;
6564;SDS011;3316;44.118;27.258;2023-03-12T17:10:05;83.77;;;43.70;;
6564;SDS011;3316;44.118;27.258;2023-03-12T17:12:33;74.97;;;40.23;;
6564;SDS011;3316;44.118;27.258;2023-03-12T17:15:00;81.43;;;41.50;;
6564;SDS011;3316;44.118;27.258;2023-03-12T17:17:29;78.07;;;41.10;;